sensor_id;sensor_type;location;lat;lon;timestamp;temperature;humidity
6186;DHT22;3126;52.738;8.316;2022-09-29T00:00:20;4.80;99.90
6186;DHT22;3126;52.738;8.316;2022-09-29T00:05:21;4.80;99.90
6186;DHT22;3126;52.738;8.316;2022-09-29T00:10:21;4.80;99.90
6186;DHT22;3126;52.738;8.316;2022-09-29T00:15:23;4.80;99.90
6186;DHT22;3126;52.738;8.316;2022-09-29T00:20:23;4.80;99.90
6186;DHT22;3126;52.738;8.316;2022-09-29T00:25:24;4.80;99.90
6186;DHT22;3126;52.738;8.316;2022-09-29T00:30:25;4.60;99.90
6186;DHT22;3126;52.738;8.316;2022-09-29T00:35:26;4.60;99.90
6186;DHT22;3126;52.738;8.316;2022-09-29T00:40:26;4.50;99.90
6186;DHT22;3126;52.738;8.316;2022-09-29T00:45:27;4.40;99.90
6186;DHT22;3126;52.738;8.316;2022-09-29T00:50:49;4.40;99.90
6186;DHT22;3126;52.738;8.316;2022-09-29T00:56:06;4.30;99.90
6186;DHT22;3126;52.738;8.316;2022-09-29T01:01:11;4.20;99.90
6186;DHT22;3126;52.738;8.316;2022-09-29T01:11:13;4.10;99.90
6186;DHT22;3126;52.738;8.316;2022-09-29T01:16:15;4.10;99.90
6186;DHT22;3126;52.738;8.316;2022-09-29T01:37:04;4.10;99.90
6186;DHT22;3126;52.738;8.316;2022-09-29T01:42:17;4.00;99.90
6186;DHT22;3126;52.738;8.316;2022-09-29T01:47:20;3.90;99.90
6186;DHT22;3126;52.738;8.316;2022-09-29T01:52:25;3.90;99.90
6186;DHT22;3126;52.738;8.316;2022-09-29T02:02:39;3.80;99.90
6186;DHT22;3126;52.738;8.316;2022-09-29T02:07:44;3.80;99.90
6186;DHT22;3126;52.738;8.316;2022-09-29T02:12:47;3.70;99.90
6186;DHT22;3126;52.738;8.316;2022-09-29T02:17:50;3.70;99.90
6186;DHT22;3126;52.738;8.316;2022-09-29T02:22:52;3.70;99.90
6186;DHT22;3126;52.738;8.316;2022-09-29T02:27:53;3.70;99.90
6186;DHT22;3126;52.738;8.316;2022-09-29T02:32:54;3.70;99.90
6186;DHT22;3126;52.738;8.316;2022-09-29T02:38:03;3.70;99.90
6186;DHT22;3126;52.738;8.316;2022-09-29T02:43:23;3.60;99.90
6186;DHT22;3126;52.738;8.316;2022-09-29T02:48:33;3.50;99.90
6186;DHT22;3126;52.738;8.316;2022-09-29T02:59:22;3.40;99.90
6186;DHT22;3126;52.738;8.316;2022-09-29T03:04:26;3.20;99.90
6186;DHT22;3126;52.738;8.316;2022-09-29T03:09:26;3.20;99.90
6186;DHT22;3126;52.738;8.316;2022-09-29T03:14:27;3.20;99.90
6186;DHT22;3126;52.738;8.316;2022-09-29T03:19:28;3.10;99.90
6186;DHT22;3126;52.738;8.316;2022-09-29T03:24:29;3.10;99.90
6186;DHT22;3126;52.738;8.316;2022-09-29T03:29:31;3.10;99.90
6186;DHT22;3126;52.738;8.316;2022-09-29T03:34:32;3.10;99.90
6186;DHT22;3126;52.738;8.316;2022-09-29T03:39:33;3.10;99.90
6186;DHT22;3126;52.738;8.316;2022-09-29T03:44:34;3.00;99.90
6186;DHT22;3126;52.738;8.316;2022-09-29T03:49:34;3.00;99.90
6186;DHT22;3126;52.738;8.316;2022-09-29T03:54:35;3.00;99.90
6186;DHT22;3126;52.738;8.316;2022-09-29T03:59:35;3.00;99.90
6186;DHT22;3126;52.738;8.316;2022-09-29T04:04:36;2.90;99.90
6186;DHT22;3126;52.738;8.316;2022-09-29T04:09:37;2.90;99.90
6186;DHT22;3126;52.738;8.316;2022-09-29T04:14:37;2.90;99.90
6186;DHT22;3126;52.738;8.316;2022-09-29T04:19:38;3.00;99.90
6186;DHT22;3126;52.738;8.316;2022-09-29T04:24:39;3.00;99.90
6186;DHT22;3126;52.738;8.316;2022-09-29T04:29:39;2.90;99.90
6186;DHT22;3126;52.738;8.316;2022-09-29T04:34:40;2.90;99.90
6186;DHT22;3126;52.738;8.316;2022-09-29T04:39:40;2.80;99.90
6186;DHT22;3126;52.738;8.316;2022-09-29T04:44:41;2.80;99.90
6186;DHT22;3126;52.738;8.316;2022-09-29T04:49:41;2.70;99.90
6186;DHT22;3126;52.738;8.316;2022-09-29T04:54:42;2.70;99.90
6186;DHT22;3126;52.738;8.316;2022-09-29T04:59:43;2.70;99.90
6186;DHT22;3126;52.738;8.316;2022-09-29T05:04:44;2.60;99.90
6186;DHT22;3126;52.738;8.316;2022-09-29T05:09:45;2.60;99.90
6186;DHT22;3126;52.738;8.316;2022-09-29T05:14:46;2.60;99.90
6186;DHT22;3126;52.738;8.316;2022-09-29T05:19:46;2.50;99.90
6186;DHT22;3126;52.738;8.316;2022-09-29T05:24:47;2.50;99.90
6186;DHT22;3126;52.738;8.316;2022-09-29T05:29:47;2.50;99.90
6186;DHT22;3126;52.738;8.316;2022-09-29T05:34:48;2.60;99.90
6186;DHT22;3126;52.738;8.316;2022-09-29T05:39:49;2.50;99.90
6186;DHT22;3126;52.738;8.316;2022-09-29T05:44:50;2.50;99.90
6186;DHT22;3126;52.738;8.316;2022-09-29T05:49:51;2.40;99.90
6186;DHT22;3126;52.738;8.316;2022-09-29T05:54:51;2.40;99.90
6186;DHT22;3126;52.738;8.316;2022-09-29T05:59:52;2.50;99.90
6186;DHT22;3126;52.738;8.316;2022-09-29T06:04:53;2.60;99.90
6186;DHT22;3126;52.738;8.316;2022-09-29T06:09:53;2.70;99.90
6186;DHT22;3126;52.738;8.316;2022-09-29T06:14:54;2.70;99.90
6186;DHT22;3126;52.738;8.316;2022-09-29T06:19:54;2.90;99.90
6186;DHT22;3126;52.738;8.316;2022-09-29T06:24:55;2.90;99.90
6186;DHT22;3126;52.738;8.316;2022-09-29T06:29:56;3.10;99.90
6186;DHT22;3126;52.738;8.316;2022-09-29T06:34:56;3.20;99.90
6186;DHT22;3126;52.738;8.316;2022-09-29T06:40:15;3.30;99.90
6186;DHT22;3126;52.738;8.316;2022-09-29T06:45:16;3.50;99.90
6186;DHT22;3126;52.738;8.316;2022-09-29T06:50:18;3.70;99.90
6186;DHT22;3126;52.738;8.316;2022-09-29T06:55:19;3.80;99.90
6186;DHT22;3126;52.738;8.316;2022-09-29T07:00:19;4.00;99.90
6186;DHT22;3126;52.738;8.316;2022-09-29T07:05:20;4.20;99.90
6186;DHT22;3126;52.738;8.316;2022-09-29T07:10:20;4.40;99.90
6186;DHT22;3126;52.738;8.316;2022-09-29T07:15:21;4.60;99.90
6186;DHT22;3126;52.738;8.316;2022-09-29T07:20:22;4.90;99.90
6186;DHT22;3126;52.738;8.316;2022-09-29T07:25:23;5.10;99.90
6186;DHT22;3126;52.738;8.316;2022-09-29T07:30:23;5.60;99.90
6186;DHT22;3126;52.738;8.316;2022-09-29T07:35:25;6.10;99.90
6186;DHT22;3126;52.738;8.316;2022-09-29T07:40:25;6.60;99.90
6186;DHT22;3126;52.738;8.316;2022-09-29T07:45:27;6.90;99.90
6186;DHT22;3126;52.738;8.316;2022-09-29T07:50:28;7.30;99.90
6186;DHT22;3126;52.738;8.316;2022-09-29T07:55:28;7.60;99.90
6186;DHT22;3126;52.738;8.316;2022-09-29T08:00:29;7.80;99.90
6186;DHT22;3126;52.738;8.316;2022-09-29T08:05:31;8.10;99.90
6186;DHT22;3126;52.738;8.316;2022-09-29T08:10:32;8.30;99.90
6186;DHT22;3126;52.738;8.316;2022-09-29T08:15:33;8.60;99.90
6186;DHT22;3126;52.738;8.316;2022-09-29T08:20:37;9.10;99.90
6186;DHT22;3126;52.738;8.316;2022-09-29T08:25:37;9.10;99.90
6186;DHT22;3126;52.738;8.316;2022-09-29T08:30:38;9.30;99.90
6186;DHT22;3126;52.738;8.316;2022-09-29T08:35:40;9.50;99.90
6186;DHT22;3126;52.738;8.316;2022-09-29T08:40:40;9.80;99.90
6186;DHT22;3126;52.738;8.316;2022-09-29T08:45:45;9.90;99.90
6186;DHT22;3126;52.738;8.316;2022-09-29T08:50:52;10.10;99.90
6186;DHT22;3126;52.738;8.316;2022-09-29T08:56:14;10.40;97.40
6186;DHT22;3126;52.738;8.316;2022-09-29T09:07:03;10.80;95.00
6186;DHT22;3126;52.738;8.316;2022-09-29T09:23:40;11.30;89.50
6186;DHT22;3126;52.738;8.316;2022-09-29T09:44:37;11.90;83.60
6186;DHT22;3126;52.738;8.316;2022-09-29T09:49:46;12.10;83.10
6186;DHT22;3126;52.738;8.316;2022-09-29T09:55:14;12.30;82.80
6186;DHT22;3126;52.738;8.316;2022-09-29T10:00:20;12.50;82.10
6186;DHT22;3126;52.738;8.316;2022-09-29T10:05:28;12.60;81.30
6186;DHT22;3126;52.738;8.316;2022-09-29T12:34:21;13.50;80.40
6186;DHT22;3126;52.738;8.316;2022-09-29T12:39:39;18.30;53.10
6186;DHT22;3126;52.738;8.316;2022-09-29T12:44:48;17.70;53.70
6186;DHT22;3126;52.738;8.316;2022-09-29T12:55:16;17.70;55.30
6186;DHT22;3126;52.738;8.316;2022-09-29T13:00:18;18.10;53.00
6186;DHT22;3126;52.738;8.316;2022-09-29T13:05:50;18.10;53.70
6186;DHT22;3126;52.738;8.316;2022-09-29T14:03:04;18.40;53.10
6186;DHT22;3126;52.738;8.316;2022-09-29T14:08:15;17.80;54.00
6186;DHT22;3126;52.738;8.316;2022-09-29T14:13:43;17.70;51.90
6186;DHT22;3126;52.738;8.316;2022-09-29T14:29:40;17.10;53.40
6186;DHT22;3126;52.738;8.316;2022-09-29T14:34:43;16.80;54.60
6186;DHT22;3126;52.738;8.316;2022-09-29T15:11:47;16.00;59.30
6186;DHT22;3126;52.738;8.316;2022-09-29T15:17:02;15.70;60.60
6186;DHT22;3126;52.738;8.316;2022-09-29T15:22:28;15.70;59.50
6186;DHT22;3126;52.738;8.316;2022-09-29T15:27:32;15.80;59.50
6186;DHT22;3126;52.738;8.316;2022-09-29T15:32:33;15.90;59.90
6186;DHT22;3126;52.738;8.316;2022-09-29T15:42:51;15.80;60.40
6186;DHT22;3126;52.738;8.316;2022-09-29T15:53:02;15.70;61.00
6186;DHT22;3126;52.738;8.316;2022-09-29T16:03:38;15.50;60.10
6186;DHT22;3126;52.738;8.316;2022-09-29T16:13:53;15.40;61.10
6186;DHT22;3126;52.738;8.316;2022-09-29T16:19:00;15.20;60.20
6186;DHT22;3126;52.738;8.316;2022-09-29T16:39:24;14.80;63.10
6186;DHT22;3126;52.738;8.316;2022-09-29T16:44:30;14.60;63.80
6186;DHT22;3126;52.738;8.316;2022-09-29T16:49:58;14.40;65.40
6186;DHT22;3126;52.738;8.316;2022-09-29T17:00:21;14.10;69.10
6186;DHT22;3126;52.738;8.316;2022-09-29T21:32:36;13.80;72.90
6186;DHT22;3126;52.738;8.316;2022-09-29T21:37:37;10.60;92.70
6186;DHT22;3126;52.738;8.316;2022-09-29T21:42:37;10.60;93.10
6186;DHT22;3126;52.738;8.316;2022-09-29T21:47:38;10.60;93.20
6186;DHT22;3126;52.738;8.316;2022-09-29T21:53:08;10.60;93.40
6186;DHT22;3126;52.738;8.316;2022-09-29T21:58:10;10.60;93.60
6186;DHT22;3126;52.738;8.316;2022-09-29T22:03:10;10.60;93.60
6186;DHT22;3126;52.738;8.316;2022-09-29T22:08:11;10.60;93.60
6186;DHT22;3126;52.738;8.316;2022-09-29T22:13:11;10.60;94.00
6186;DHT22;3126;52.738;8.316;2022-09-29T22:18:12;10.60;94.40
6186;DHT22;3126;52.738;8.316;2022-09-29T22:23:13;10.60;94.40
6186;DHT22;3126;52.738;8.316;2022-09-29T22:28:13;10.60;94.90
6186;DHT22;3126;52.738;8.316;2022-09-29T22:33:14;10.60;95.60
6186;DHT22;3126;52.738;8.316;2022-09-29T22:38:15;10.60;95.90
6186;DHT22;3126;52.738;8.316;2022-09-29T22:43:16;10.50;96.00
6186;DHT22;3126;52.738;8.316;2022-09-29T22:48:17;10.50;96.00
6186;DHT22;3126;52.738;8.316;2022-09-29T22:53:18;10.50;96.50
6186;DHT22;3126;52.738;8.316;2022-09-29T22:58:18;10.50;96.10
6186;DHT22;3126;52.738;8.316;2022-09-29T23:03:19;10.50;95.30
6186;DHT22;3126;52.738;8.316;2022-09-29T23:08:20;10.60;94.90
6186;DHT22;3126;52.738;8.316;2022-09-29T23:13:22;10.50;94.50
6186;DHT22;3126;52.738;8.316;2022-09-29T23:18:23;10.50;94.70
6186;DHT22;3126;52.738;8.316;2022-09-29T23:23:23;10.60;94.20
6186;DHT22;3126;52.738;8.316;2022-09-29T23:28:24;10.50;94.40
6186;DHT22;3126;52.738;8.316;2022-09-29T23:33:25;10.50;94.70
6186;DHT22;3126;52.738;8.316;2022-09-29T23:38:27;10.50;94.90
6186;DHT22;3126;52.738;8.316;2022-09-29T23:43:46;10.50;95.10
6186;DHT22;3126;52.738;8.316;2022-09-29T23:48:47;10.50;95.50
6186;DHT22;3126;52.738;8.316;2022-09-29T23:53:49;10.40;95.50
6186;DHT22;3126;52.738;8.316;2022-09-29T23:58:50;10.40;95.50
